sensor_id;sensor_type;location;lat;lon;timestamp;P1;durP1;ratioP1;P2;durP2;ratioP2
16099;SDS011;8154;50.830;12.082;2022-12-07T00:02:10;1.40;;;1.30;;
16099;SDS011;8154;50.830;12.082;2022-12-07T00:04:54;1.42;;;1.33;;
16099;SDS011;8154;50.830;12.082;2022-12-07T00:07:38;1.58;;;1.48;;
16099;SDS011;8154;50.830;12.082;2022-12-07T00:10:22;1.42;;;1.33;;
16099;SDS011;8154;50.830;12.082;2022-12-07T00:13:06;1.50;;;1.40;;
16099;SDS011;8154;50.830;12.082;2022-12-07T00:15:50;1.50;;;1.40;;
16099;SDS011;8154;50.830;12.082;2022-12-07T00:18:34;1.52;;;1.42;;
16099;SDS011;8154;50.830;12.082;2022-12-07T00:21:19;1.50;;;1.40;;
16099;SDS011;8154;50.830;12.082;2022-12-07T00:24:21;1.50;;;1.40;;
16099;SDS011;8154;50.830;12.082;2022-12-07T00:27:05;1.40;;;1.30;;
16099;SDS011;8154;50.830;12.082;2022-12-07T00:29:49;1.40;;;1.30;;
16099;SDS011;8154;50.830;12.082;2022-12-07T00:32:33;1.67;;;1.58;;
16099;SDS011;8154;50.830;12.082;2022-12-07T00:35:17;1.60;;;1.50;;
16099;SDS011;8154;50.830;12.082;2022-12-07T00:38:01;1.50;;;1.40;;
16099;SDS011;8154;50.830;12.082;2022-12-07T00:40:53;1.40;;;1.30;;
16099;SDS011;8154;50.830;12.082;2022-12-07T00:43:42;1.40;;;1.30;;
16099;SDS011;8154;50.830;12.082;2022-12-07T00:46:30;1.40;;;1.30;;
16099;SDS011;8154;50.830;12.082;2022-12-07T00:49:15;1.50;;;1.40;;
16099;SDS011;8154;50.830;12.082;2022-12-07T00:51:59;1.50;;;1.40;;
16099;SDS011;8154;50.830;12.082;2022-12-07T00:54:43;1.20;;;1.20;;
16099;SDS011;8154;50.830;12.082;2022-12-07T00:57:28;1.25;;;1.20;;
16099;SDS011;8154;50.830;12.082;2022-12-07T01:00:15;1.38;;;1.27;;
16099;SDS011;8154;50.830;12.082;2022-12-07T01:02:59;1.30;;;1.30;;
16099;SDS011;8154;50.830;12.082;2022-12-07T01:05:52;1.35;;;1.33;;
16099;SDS011;8154;50.830;12.082;2022-12-07T01:08:38;1.20;;;1.20;;
16099;SDS011;8154;50.830;12.082;2022-12-07T01:11:23;1.25;;;1.25;;
16099;SDS011;8154;50.830;12.082;2022-12-07T01:14:09;1.27;;;1.20;;
16099;SDS011;8154;50.830;12.082;2022-12-07T01:16:54;1.20;;;1.20;;
16099;SDS011;8154;50.830;12.082;2022-12-07T01:19:38;1.30;;;1.20;;
16099;SDS011;8154;50.830;12.082;2022-12-07T01:22:22;1.30;;;1.30;;
16099;SDS011;8154;50.830;12.082;2022-12-07T01:25:07;1.40;;;1.30;;
16099;SDS011;8154;50.830;12.082;2022-12-07T01:27:52;1.40;;;1.30;;
16099;SDS011;8154;50.830;12.082;2022-12-07T01:30:36;1.13;;;1.10;;
16099;SDS011;8154;50.830;12.082;2022-12-07T01:33:20;1.30;;;1.20;;
16099;SDS011;8154;50.830;12.082;2022-12-07T01:36:08;1.30;;;1.30;;
16099;SDS011;8154;50.830;12.082;2022-12-07T01:39:03;1.30;;;1.30;;
16099;SDS011;8154;50.830;12.082;2022-12-07T01:41:50;1.38;;;1.27;;
16099;SDS011;8154;50.830;12.082;2022-12-07T01:45:15;1.13;;;1.13;;
16099;SDS011;8154;50.830;12.082;2022-12-07T01:47:57;1.10;;;1.10;;
16099;SDS011;8154;50.830;12.082;2022-12-07T01:50:42;1.27;;;1.27;;
16099;SDS011;8154;50.830;12.082;2022-12-07T01:53:29;1.10;;;1.10;;
16099;SDS011;8154;50.830;12.082;2022-12-07T01:56:17;1.20;;;1.20;;
16099;SDS011;8154;50.830;12.082;2022-12-07T01:59:05;1.15;;;1.13;;
16099;SDS011;8154;50.830;12.082;2022-12-07T02:01:50;1.10;;;1.10;;
16099;SDS011;8154;50.830;12.082;2022-12-07T02:04:35;1.40;;;1.30;;
16099;SDS011;8154;50.830;12.082;2022-12-07T02:07:20;1.10;;;1.10;;
16099;SDS011;8154;50.830;12.082;2022-12-07T02:13:02;1.30;;;1.20;;
16099;SDS011;8154;50.830;12.082;2022-12-07T02:22:11;1.20;;;1.20;;
16099;SDS011;8154;50.830;12.082;2022-12-07T02:28:31;1.17;;;1.10;;
16099;SDS011;8154;50.830;12.082;2022-12-07T02:31:19;1.10;;;1.10;;
16099;SDS011;8154;50.830;12.082;2022-12-07T02:34:50;1.20;;;1.20;;
16099;SDS011;8154;50.830;12.082;2022-12-07T02:43:09;1.02;;;1.02;;
16099;SDS011;8154;50.830;12.082;2022-12-07T02:46:03;1.05;;;1.05;;
16099;SDS011;8154;50.830;12.082;2022-12-07T02:48:50;1.10;;;1.10;;
16099;SDS011;8154;50.830;12.082;2022-12-07T02:51:39;1.05;;;1.05;;
16099;SDS011;8154;50.830;12.082;2022-12-07T02:54:26;1.10;;;1.10;;
16099;SDS011;8154;50.830;12.082;2022-12-07T03:00:15;1.13;;;1.13;;
16099;SDS011;8154;50.830;12.082;2022-12-07T03:03:07;1.00;;;1.00;;
16099;SDS011;8154;50.830;12.082;2022-12-07T03:12:24;1.05;;;1.05;;
16099;SDS011;8154;50.830;12.082;2022-12-07T03:18:41;1.02;;;1.02;;
16099;SDS011;8154;50.830;12.082;2022-12-07T03:21:36;1.08;;;1.08;;
16099;SDS011;8154;50.830;12.082;2022-12-07T03:24:34;1.00;;;1.00;;
16099;SDS011;8154;50.830;12.082;2022-12-07T03:30:37;1.05;;;1.05;;
16099;SDS011;8154;50.830;12.082;2022-12-07T03:34:20;1.15;;;1.10;;
16099;SDS011;8154;50.830;12.082;2022-12-07T03:37:05;1.05;;;1.05;;
16099;SDS011;8154;50.830;12.082;2022-12-07T03:42:45;1.00;;;1.00;;
16099;SDS011;8154;50.830;12.082;2022-12-07T03:45:33;1.00;;;1.00;;
16099;SDS011;8154;50.830;12.082;2022-12-07T03:55:06;0.90;;;0.90;;
16099;SDS011;8154;50.830;12.082;2022-12-07T03:57:53;0.82;;;0.82;;
16099;SDS011;8154;50.830;12.082;2022-12-07T04:00:42;0.90;;;0.90;;
16099;SDS011;8154;50.830;12.082;2022-12-07T04:03:27;1.00;;;1.00;;
16099;SDS011;8154;50.830;12.082;2022-12-07T04:06:11;0.90;;;0.90;;
16099;SDS011;8154;50.830;12.082;2022-12-07T04:08:55;0.80;;;0.80;;
16099;SDS011;8154;50.830;12.082;2022-12-07T04:11:39;0.90;;;0.90;;
16099;SDS011;8154;50.830;12.082;2022-12-07T04:14:23;0.90;;;0.90;;
16099;SDS011;8154;50.830;12.082;2022-12-07T04:17:08;1.00;;;1.00;;
16099;SDS011;8154;50.830;12.082;2022-12-07T04:19:52;1.00;;;1.00;;
16099;SDS011;8154;50.830;12.082;2022-12-07T04:22:36;0.93;;;0.93;;
16099;SDS011;8154;50.830;12.082;2022-12-07T04:25:21;0.95;;;0.95;;
16099;SDS011;8154;50.830;12.082;2022-12-07T04:28:05;0.90;;;0.90;;
16099;SDS011;8154;50.830;12.082;2022-12-07T04:30:49;0.90;;;0.90;;
16099;SDS011;8154;50.830;12.082;2022-12-07T04:33:34;1.00;;;1.00;;
16099;SDS011;8154;50.830;12.082;2022-12-07T04:36:20;0.90;;;0.90;;
16099;SDS011;8154;50.830;12.082;2022-12-07T04:39:05;0.90;;;0.90;;
16099;SDS011;8154;50.830;12.082;2022-12-07T04:41:51;1.00;;;1.00;;
16099;SDS011;8154;50.830;12.082;2022-12-07T04:44:35;0.82;;;0.82;;
16099;SDS011;8154;50.830;12.082;2022-12-07T04:47:20;0.90;;;0.90;;
16099;SDS011;8154;50.830;12.082;2022-12-07T04:50:04;1.00;;;1.00;;
16099;SDS011;8154;50.830;12.082;2022-12-07T04:52:49;0.98;;;0.98;;
16099;SDS011;8154;50.830;12.082;2022-12-07T04:55:33;0.80;;;0.80;;
16099;SDS011;8154;50.830;12.082;2022-12-07T04:58:18;0.90;;;0.90;;
16099;SDS011;8154;50.830;12.082;2022-12-07T05:01:02;0.90;;;0.90;;
16099;SDS011;8154;50.830;12.082;2022-12-07T05:03:46;0.88;;;0.88;;
16099;SDS011;8154;50.830;12.082;2022-12-07T05:06:30;0.90;;;0.90;;
16099;SDS011;8154;50.830;12.082;2022-12-07T05:09:15;0.80;;;0.80;;
16099;SDS011;8154;50.830;12.082;2022-12-07T05:11:59;0.80;;;0.80;;
16099;SDS011;8154;50.830;12.082;2022-12-07T05:14:43;0.85;;;0.85;;
16099;SDS011;8154;50.830;12.082;2022-12-07T05:17:28;0.90;;;0.90;;
16099;SDS011;8154;50.830;12.082;2022-12-07T05:20:12;0.80;;;0.80;;
16099;SDS011;8154;50.830;12.082;2022-12-07T05:22:56;1.00;;;1.00;;
16099;SDS011;8154;50.830;12.082;2022-12-07T05:25:42;0.85;;;0.85;;
16099;SDS011;8154;50.830;12.082;2022-12-07T05:28:26;0.90;;;0.90;;
16099;SDS011;8154;50.830;12.082;2022-12-07T05:31:10;0.85;;;0.85;;
16099;SDS011;8154;50.830;12.082;2022-12-07T05:33:55;0.90;;;0.90;;
16099;SDS011;8154;50.830;12.082;2022-12-07T05:36:39;1.00;;;1.00;;
16099;SDS011;8154;50.830;12.082;2022-12-07T05:39:23;0.90;;;0.90;;
16099;SDS011;8154;50.830;12.082;2022-12-07T05:42:08;0.90;;;0.90;;
16099;SDS011;8154;50.830;12.082;2022-12-07T05:44:57;1.00;;;1.00;;
16099;SDS011;8154;50.830;12.082;2022-12-07T05:47:41;1.13;;;1.10;;
16099;SDS011;8154;50.830;12.082;2022-12-07T05:50:25;0.90;;;0.90;;
16099;SDS011;8154;50.830;12.082;2022-12-07T05:53:11;1.15;;;1.08;;
16099;SDS011;8154;50.830;12.082;2022-12-07T05:55:55;1.08;;;1.08;;
16099;SDS011;8154;50.830;12.082;2022-12-07T05:58:39;1.30;;;1.20;;
16099;SDS011;8154;50.830;12.082;2022-12-07T06:01:42;1.10;;;1.10;;
16099;SDS011;8154;50.830;12.082;2022-12-07T06:04:28;1.23;;;1.20;;
16099;SDS011;8154;50.830;12.082;2022-12-07T06:07:14;1.20;;;1.20;;
16099;SDS011;8154;50.830;12.082;2022-12-07T06:09:59;1.35;;;1.25;;
16099;SDS011;8154;50.830;12.082;2022-12-07T06:12:43;1.40;;;1.30;;
16099;SDS011;8154;50.830;12.082;2022-12-07T06:15:29;1.30;;;1.20;;
16099;SDS011;8154;50.830;12.082;2022-12-07T06:18:14;1.13;;;1.13;;
16099;SDS011;8154;50.830;12.082;2022-12-07T06:20:58;1.40;;;1.30;;
16099;SDS011;8154;50.830;12.082;2022-12-07T06:23:43;1.42;;;1.33;;
16099;SDS011;8154;50.830;12.082;2022-12-07T06:26:27;1.50;;;1.40;;
16099;SDS011;8154;50.830;12.082;2022-12-07T06:29:12;1.20;;;1.20;;
16099;SDS011;8154;50.830;12.082;2022-12-07T06:31:56;1.40;;;1.30;;
16099;SDS011;8154;50.830;12.082;2022-12-07T06:34:41;1.40;;;1.30;;
16099;SDS011;8154;50.830;12.082;2022-12-07T06:37:25;1.10;;;1.10;;
16099;SDS011;8154;50.830;12.082;2022-12-07T06:40:10;1.40;;;1.30;;
16099;SDS011;8154;50.830;12.082;2022-12-07T06:42:54;1.20;;;1.20;;
16099;SDS011;8154;50.830;12.082;2022-12-07T06:45:38;1.20;;;1.20;;
16099;SDS011;8154;50.830;12.082;2022-12-07T06:48:22;1.25;;;1.15;;
16099;SDS011;8154;50.830;12.082;2022-12-07T06:51:07;1.20;;;1.20;;
16099;SDS011;8154;50.830;12.082;2022-12-07T06:53:52;1.10;;;1.10;;
16099;SDS011;8154;50.830;12.082;2022-12-07T06:56:36;1.20;;;1.20;;
16099;SDS011;8154;50.830;12.082;2022-12-07T06:59:21;1.20;;;1.20;;
16099;SDS011;8154;50.830;12.082;2022-12-07T07:02:05;1.42;;;1.33;;
16099;SDS011;8154;50.830;12.082;2022-12-07T07:04:49;1.15;;;1.15;;
16099;SDS011;8154;50.830;12.082;2022-12-07T07:07:33;1.30;;;1.20;;
16099;SDS011;8154;50.830;12.082;2022-12-07T07:10:19;1.30;;;1.20;;
16099;SDS011;8154;50.830;12.082;2022-12-07T07:13:03;1.40;;;1.30;;
16099;SDS011;8154;50.830;12.082;2022-12-07T07:15:47;1.30;;;1.20;;
16099;SDS011;8154;50.830;12.082;2022-12-07T07:18:32;1.20;;;1.20;;
16099;SDS011;8154;50.830;12.082;2022-12-07T07:21:17;1.30;;;1.20;;
16099;SDS011;8154;50.830;12.082;2022-12-07T07:24:00;1.10;;;1.10;;
16099;SDS011;8154;50.830;12.082;2022-12-07T07:26:45;1.30;;;1.20;;
16099;SDS011;8154;50.830;12.082;2022-12-07T07:29:29;1.00;;;1.00;;
16099;SDS011;8154;50.830;12.082;2022-12-07T07:32:13;1.10;;;1.10;;
16099;SDS011;8154;50.830;12.082;2022-12-07T07:34:57;1.10;;;1.10;;
16099;SDS011;8154;50.830;12.082;2022-12-07T07:37:41;1.17;;;1.17;;
16099;SDS011;8154;50.830;12.082;2022-12-07T07:40:26;1.10;;;1.10;;
16099;SDS011;8154;50.830;12.082;2022-12-07T07:43:12;1.10;;;1.10;;
16099;SDS011;8154;50.830;12.082;2022-12-07T07:45:56;0.95;;;0.95;;
16099;SDS011;8154;50.830;12.082;2022-12-07T07:48:41;1.17;;;1.17;;
16099;SDS011;8154;50.830;12.082;2022-12-07T07:51:24;1.17;;;1.17;;
16099;SDS011;8154;50.830;12.082;2022-12-07T07:54:08;1.00;;;1.00;;
16099;SDS011;8154;50.830;12.082;2022-12-07T07:56:53;1.00;;;1.00;;
16099;SDS011;8154;50.830;12.082;2022-12-07T07:59:38;1.10;;;1.10;;
16099;SDS011;8154;50.830;12.082;2022-12-07T08:02:23;1.02;;;1.02;;
16099;SDS011;8154;50.830;12.082;2022-12-07T08:05:07;1.10;;;1.10;;
16099;SDS011;8154;50.830;12.082;2022-12-07T08:07:51;1.27;;;1.20;;
16099;SDS011;8154;50.830;12.082;2022-12-07T08:10:36;1.20;;;1.20;;
16099;SDS011;8154;50.830;12.082;2022-12-07T08:13:21;1.10;;;1.10;;
16099;SDS011;8154;50.830;12.082;2022-12-07T08:16:06;1.30;;;1.20;;
16099;SDS011;8154;50.830;12.082;2022-12-07T08:18:51;1.48;;;1.38;;
16099;SDS011;8154;50.830;12.082;2022-12-07T08:21:37;1.38;;;1.27;;
16099;SDS011;8154;50.830;12.082;2022-12-07T08:24:22;1.42;;;1.33;;
16099;SDS011;8154;50.830;12.082;2022-12-07T08:27:08;1.40;;;1.30;;
16099;SDS011;8154;50.830;12.082;2022-12-07T08:29:52;1.42;;;1.33;;
16099;SDS011;8154;50.830;12.082;2022-12-07T08:32:36;1.33;;;1.23;;
16099;SDS011;8154;50.830;12.082;2022-12-07T08:35:21;1.45;;;1.35;;
16099;SDS011;8154;50.830;12.082;2022-12-07T08:38:05;1.40;;;1.30;;
16099;SDS011;8154;50.830;12.082;2022-12-07T08:40:56;1.40;;;1.30;;
16099;SDS011;8154;50.830;12.082;2022-12-07T08:43:41;1.30;;;1.20;;
16099;SDS011;8154;50.830;12.082;2022-12-07T08:46:38;1.38;;;1.27;;
16099;SDS011;8154;50.830;12.082;2022-12-07T08:49:31;1.50;;;1.40;;
16099;SDS011;8154;50.830;12.082;2022-12-07T08:52:27;1.48;;;1.38;;
16099;SDS011;8154;50.830;12.082;2022-12-07T08:55:13;1.50;;;1.40;;
16099;SDS011;8154;50.830;12.082;2022-12-07T08:57:58;1.40;;;1.30;;
16099;SDS011;8154;50.830;12.082;2022-12-07T09:00:43;1.40;;;1.30;;
16099;SDS011;8154;50.830;12.082;2022-12-07T09:03:27;1.40;;;1.30;;
16099;SDS011;8154;50.830;12.082;2022-12-07T09:06:11;1.50;;;1.40;;
16099;SDS011;8154;50.830;12.082;2022-12-07T09:08:57;1.35;;;1.33;;
16099;SDS011;8154;50.830;12.082;2022-12-07T09:11:43;1.40;;;1.30;;
16099;SDS011;8154;50.830;12.082;2022-12-07T09:14:28;1.50;;;1.40;;
16099;SDS011;8154;50.830;12.082;2022-12-07T09:17:12;1.48;;;1.38;;
16099;SDS011;8154;50.830;12.082;2022-12-07T09:19:57;1.40;;;1.30;;
16099;SDS011;8154;50.830;12.082;2022-12-07T09:22:41;1.40;;;1.30;;
16099;SDS011;8154;50.830;12.082;2022-12-07T09:25:26;1.35;;;1.25;;
16099;SDS011;8154;50.830;12.082;2022-12-07T09:28:10;1.38;;;1.27;;
16099;SDS011;8154;50.830;12.082;2022-12-07T09:30:54;1.40;;;1.30;;
16099;SDS011;8154;50.830;12.082;2022-12-07T09:33:38;1.20;;;1.20;;
16099;SDS011;8154;50.830;12.082;2022-12-07T09:36:23;1.27;;;1.20;;
16099;SDS011;8154;50.830;12.082;2022-12-07T09:39:07;1.30;;;1.20;;
16099;SDS011;8154;50.830;12.082;2022-12-07T09:41:52;1.30;;;1.20;;
16099;SDS011;8154;50.830;12.082;2022-12-07T09:44:36;1.48;;;1.38;;
16099;SDS011;8154;50.830;12.082;2022-12-07T09:47:24;1.10;;;1.10;;
16099;SDS011;8154;50.830;12.082;2022-12-07T09:50:13;1.30;;;1.20;;
16099;SDS011;8154;50.830;12.082;2022-12-07T09:53:09;1.20;;;1.20;;
16099;SDS011;8154;50.830;12.082;2022-12-07T09:56:04;1.10;;;1.10;;
16099;SDS011;8154;50.830;12.082;2022-12-07T09:58:50;1.23;;;1.20;;
16099;SDS011;8154;50.830;12.082;2022-12-07T10:01:41;1.55;;;1.20;;
16099;SDS011;8154;50.830;12.082;2022-12-07T10:04:27;1.20;;;1.20;;
16099;SDS011;8154;50.830;12.082;2022-12-07T10:07:13;1.30;;;1.20;;
16099;SDS011;8154;50.830;12.082;2022-12-07T10:09:58;1.40;;;1.30;;
16099;SDS011;8154;50.830;12.082;2022-12-07T10:15:58;1.40;;;1.30;;
16099;SDS011;8154;50.830;12.082;2022-12-07T10:18:42;1.10;;;1.10;;
16099;SDS011;8154;50.830;12.082;2022-12-07T10:21:27;1.00;;;1.00;;
16099;SDS011;8154;50.830;12.082;2022-12-07T10:26:55;1.20;;;1.15;;
16099;SDS011;8154;50.830;12.082;2022-12-07T10:29:40;1.27;;;1.20;;
16099;SDS011;8154;50.830;12.082;2022-12-07T10:32:35;1.25;;;1.20;;
16099;SDS011;8154;50.830;12.082;2022-12-07T10:35:21;1.23;;;1.20;;
16099;SDS011;8154;50.830;12.082;2022-12-07T10:38:15;1.10;;;1.10;;
16099;SDS011;8154;50.830;12.082;2022-12-07T10:41:05;1.15;;;1.15;;
16099;SDS011;8154;50.830;12.082;2022-12-07T10:43:52;1.10;;;1.10;;
16099;SDS011;8154;50.830;12.082;2022-12-07T10:49:51;1.17;;;1.10;;
16099;SDS011;8154;50.830;12.082;2022-12-07T10:53:18;1.00;;;1.00;;
16099;SDS011;8154;50.830;12.082;2022-12-07T11:08:49;1.10;;;1.10;;
16099;SDS011;8154;50.830;12.082;2022-12-07T11:11:49;1.02;;;1.02;;
16099;SDS011;8154;50.830;12.082;2022-12-07T11:18:29;1.20;;;1.10;;
16099;SDS011;8154;50.830;12.082;2022-12-07T11:21:27;0.90;;;0.90;;
16099;SDS011;8154;50.830;12.082;2022-12-07T11:24:22;1.13;;;1.13;;
16099;SDS011;8154;50.830;12.082;2022-12-07T11:42:10;1.05;;;1.05;;
16099;SDS011;8154;50.830;12.082;2022-12-07T11:45:00;1.30;;;1.20;;
16099;SDS011;8154;50.830;12.082;2022-12-07T11:50:48;1.10;;;1.10;;
16099;SDS011;8154;50.830;12.082;2022-12-07T11:53:38;1.10;;;1.10;;
16099;SDS011;8154;50.830;12.082;2022-12-07T11:56:27;1.30;;;1.20;;
16099;SDS011;8154;50.830;12.082;2022-12-07T11:59:31;1.20;;;1.20;;
16099;SDS011;8154;50.830;12.082;2022-12-07T12:02:28;1.10;;;1.10;;
16099;SDS011;8154;50.830;12.082;2022-12-07T12:05:21;1.20;;;1.20;;
16099;SDS011;8154;50.830;12.082;2022-12-07T12:08:20;1.10;;;1.10;;
16099;SDS011;8154;50.830;12.082;2022-12-07T12:11:31;1.10;;;1.10;;
16099;SDS011;8154;50.830;12.082;2022-12-07T12:20:48;1.40;;;1.30;;
16099;SDS011;8154;50.830;12.082;2022-12-07T12:23:46;1.17;;;1.10;;
16099;SDS011;8154;50.830;12.082;2022-12-07T12:26:35;1.10;;;1.10;;
16099;SDS011;8154;50.830;12.082;2022-12-07T12:29:38;1.25;;;1.17;;
16099;SDS011;8154;50.830;12.082;2022-12-07T12:32:34;1.10;;;1.10;;
16099;SDS011;8154;50.830;12.082;2022-12-07T12:38:27;1.10;;;1.10;;
16099;SDS011;8154;50.830;12.082;2022-12-07T12:53:25;1.10;;;1.10;;
16099;SDS011;8154;50.830;12.082;2022-12-07T12:56:15;1.20;;;1.20;;
16099;SDS011;8154;50.830;12.082;2022-12-07T12:59:29;1.20;;;1.10;;
16099;SDS011;8154;50.830;12.082;2022-12-07T13:05:20;1.10;;;1.10;;
16099;SDS011;8154;50.830;12.082;2022-12-07T13:08:15;1.20;;;1.20;;
16099;SDS011;8154;50.830;12.082;2022-12-07T13:24:00;1.00;;;1.00;;
16099;SDS011;8154;50.830;12.082;2022-12-07T13:26:47;1.30;;;1.20;;
16099;SDS011;8154;50.830;12.082;2022-12-07T13:29:36;1.35;;;1.25;;
16099;SDS011;8154;50.830;12.082;2022-12-07T13:32:26;0.98;;;0.98;;
16099;SDS011;8154;50.830;12.082;2022-12-07T13:35:31;1.10;;;1.10;;
16099;SDS011;8154;50.830;12.082;2022-12-07T13:38:32;0.98;;;0.98;;
16099;SDS011;8154;50.830;12.082;2022-12-07T13:41:19;1.10;;;1.10;;
16099;SDS011;8154;50.830;12.082;2022-12-07T13:44:13;1.00;;;1.00;;
16099;SDS011;8154;50.830;12.082;2022-12-07T13:50:01;1.00;;;1.00;;
16099;SDS011;8154;50.830;12.082;2022-12-07T13:53:07;0.98;;;0.98;;
16099;SDS011;8154;50.830;12.082;2022-12-07T13:55:57;1.02;;;1.02;;
16099;SDS011;8154;50.830;12.082;2022-12-07T13:58:42;0.90;;;0.90;;
16099;SDS011;8154;50.830;12.082;2022-12-07T14:01:28;1.10;;;1.10;;
16099;SDS011;8154;50.830;12.082;2022-12-07T14:04:19;1.10;;;1.10;;
16099;SDS011;8154;50.830;12.082;2022-12-07T14:07:22;1.00;;;1.00;;
16099;SDS011;8154;50.830;12.082;2022-12-07T14:10:31;1.00;;;1.00;;
16099;SDS011;8154;50.830;12.082;2022-12-07T14:28:25;1.00;;;1.00;;
16099;SDS011;8154;50.830;12.082;2022-12-07T14:31:17;1.00;;;1.00;;
16099;SDS011;8154;50.830;12.082;2022-12-07T14:34:04;1.30;;;1.20;;
16099;SDS011;8154;50.830;12.082;2022-12-07T14:36:49;1.00;;;1.00;;
16099;SDS011;8154;50.830;12.082;2022-12-07T14:39:34;1.10;;;1.10;;
16099;SDS011;8154;50.830;12.082;2022-12-07T14:42:18;1.10;;;1.10;;
16099;SDS011;8154;50.830;12.082;2022-12-07T14:45:03;1.00;;;1.00;;
16099;SDS011;8154;50.830;12.082;2022-12-07T14:47:48;1.05;;;1.05;;
16099;SDS011;8154;50.830;12.082;2022-12-07T14:50:42;1.30;;;1.20;;
16099;SDS011;8154;50.830;12.082;2022-12-07T14:53:37;1.10;;;1.10;;
16099;SDS011;8154;50.830;12.082;2022-12-07T14:56:26;1.00;;;1.00;;
16099;SDS011;8154;50.830;12.082;2022-12-07T14:59:12;1.23;;;1.13;;
16099;SDS011;8154;50.830;12.082;2022-12-07T15:01:56;1.15;;;1.10;;
16099;SDS011;8154;50.830;12.082;2022-12-07T15:04:40;1.10;;;1.10;;
16099;SDS011;8154;50.830;12.082;2022-12-07T15:07:24;1.05;;;1.05;;
16099;SDS011;8154;50.830;12.082;2022-12-07T15:10:29;1.05;;;1.05;;
16099;SDS011;8154;50.830;12.082;2022-12-07T15:13:15;1.10;;;1.10;;
16099;SDS011;8154;50.830;12.082;2022-12-07T15:16:19;1.17;;;1.17;;
16099;SDS011;8154;50.830;12.082;2022-12-07T15:19:04;1.50;;;1.40;;
16099;SDS011;8154;50.830;12.082;2022-12-07T15:21:50;1.50;;;1.40;;
16099;SDS011;8154;50.830;12.082;2022-12-07T15:24:34;1.60;;;1.50;;
16099;SDS011;8154;50.830;12.082;2022-12-07T15:27:18;1.80;;;1.70;;
16099;SDS011;8154;50.830;12.082;2022-12-07T15:30:02;1.70;;;1.60;;
16099;SDS011;8154;50.830;12.082;2022-12-07T15:32:51;1.80;;;1.70;;
16099;SDS011;8154;50.830;12.082;2022-12-07T15:35:40;1.83;;;1.73;;
16099;SDS011;8154;50.830;12.082;2022-12-07T15:38:24;1.92;;;1.83;;
16099;SDS011;8154;50.830;12.082;2022-12-07T15:41:10;1.80;;;1.70;;
16099;SDS011;8154;50.830;12.082;2022-12-07T15:43:55;1.90;;;1.80;;
16099;SDS011;8154;50.830;12.082;2022-12-07T15:46:58;1.70;;;1.60;;
16099;SDS011;8154;50.830;12.082;2022-12-07T15:49:42;1.90;;;1.80;;
16099;SDS011;8154;50.830;12.082;2022-12-07T15:52:27;1.60;;;1.50;;
16099;SDS011;8154;50.830;12.082;2022-12-07T15:55:11;1.75;;;1.65;;
16099;SDS011;8154;50.830;12.082;2022-12-07T15:57:55;1.90;;;1.80;;
16099;SDS011;8154;50.830;12.082;2022-12-07T16:00:40;1.75;;;1.65;;
16099;SDS011;8154;50.830;12.082;2022-12-07T16:03:26;1.90;;;1.80;;
16099;SDS011;8154;50.830;12.082;2022-12-07T16:06:11;2.00;;;1.80;;
16099;SDS011;8154;50.830;12.082;2022-12-07T16:08:56;1.80;;;1.70;;
16099;SDS011;8154;50.830;12.082;2022-12-07T16:11:40;1.90;;;1.80;;
16099;SDS011;8154;50.830;12.082;2022-12-07T16:14:25;1.90;;;1.80;;
16099;SDS011;8154;50.830;12.082;2022-12-07T16:17:09;1.75;;;1.65;;
16099;SDS011;8154;50.830;12.082;2022-12-07T16:19:53;1.80;;;1.70;;
16099;SDS011;8154;50.830;12.082;2022-12-07T16:22:37;2.08;;;1.98;;
16099;SDS011;8154;50.830;12.082;2022-12-07T16:25:21;1.83;;;1.73;;
16099;SDS011;8154;50.830;12.082;2022-12-07T16:28:06;1.92;;;1.83;;
16099;SDS011;8154;50.830;12.082;2022-12-07T16:30:59;1.70;;;1.60;;
16099;SDS011;8154;50.830;12.082;2022-12-07T16:33:44;1.80;;;1.70;;
16099;SDS011;8154;50.830;12.082;2022-12-07T16:36:29;1.90;;;1.80;;
16099;SDS011;8154;50.830;12.082;2022-12-07T16:39:13;1.80;;;1.70;;
16099;SDS011;8154;50.830;12.082;2022-12-07T16:41:57;1.90;;;1.80;;
16099;SDS011;8154;50.830;12.082;2022-12-07T16:44:42;2.03;;;1.92;;
16099;SDS011;8154;50.830;12.082;2022-12-07T16:47:26;2.20;;;2.00;;
16099;SDS011;8154;50.830;12.082;2022-12-07T16:50:11;2.10;;;1.90;;
16099;SDS011;8154;50.830;12.082;2022-12-07T16:52:55;1.77;;;1.63;;
16099;SDS011;8154;50.830;12.082;2022-12-07T16:55:40;2.10;;;1.70;;
16099;SDS011;8154;50.830;12.082;2022-12-07T16:58:26;3.05;;;2.10;;
16099;SDS011;8154;50.830;12.082;2022-12-07T17:01:11;2.00;;;1.75;;
16099;SDS011;8154;50.830;12.082;2022-12-07T17:04:00;5.47;;;2.40;;
16099;SDS011;8154;50.830;12.082;2022-12-07T17:06:45;2.85;;;2.10;;
16099;SDS011;8154;50.830;12.082;2022-12-07T17:09:32;3.58;;;2.00;;
16099;SDS011;8154;50.830;12.082;2022-12-07T17:12:17;2.25;;;2.03;;
16099;SDS011;8154;50.830;12.082;2022-12-07T17:15:01;2.20;;;2.00;;
16099;SDS011;8154;50.830;12.082;2022-12-07T17:18:01;3.88;;;2.00;;
16099;SDS011;8154;50.830;12.082;2022-12-07T17:20:45;2.97;;;2.10;;
16099;SDS011;8154;50.830;12.082;2022-12-07T17:23:30;2.05;;;1.80;;
16099;SDS011;8154;50.830;12.082;2022-12-07T17:26:20;3.05;;;1.80;;
16099;SDS011;8154;50.830;12.082;2022-12-07T17:29:06;2.33;;;1.80;;
16099;SDS011;8154;50.830;12.082;2022-12-07T17:31:54;5.32;;;1.85;;
16099;SDS011;8154;50.830;12.082;2022-12-07T17:34:38;4.20;;;1.75;;
16099;SDS011;8154;50.830;12.082;2022-12-07T17:37:23;2.10;;;1.70;;
16099;SDS011;8154;50.830;12.082;2022-12-07T17:40:07;2.55;;;1.92;;
16099;SDS011;8154;50.830;12.082;2022-12-07T17:42:51;2.13;;;1.80;;
16099;SDS011;8154;50.830;12.082;2022-12-07T17:45:36;7.55;;;2.30;;
16099;SDS011;8154;50.830;12.082;2022-12-07T17:48:21;1.60;;;1.50;;
16099;SDS011;8154;50.830;12.082;2022-12-07T17:51:06;2.72;;;1.70;;
16099;SDS011;8154;50.830;12.082;2022-12-07T17:54:09;2.53;;;1.75;;
16099;SDS011;8154;50.830;12.082;2022-12-07T17:56:54;2.85;;;1.70;;
16099;SDS011;8154;50.830;12.082;2022-12-07T17:59:38;6.47;;;1.90;;
16099;SDS011;8154;50.830;12.082;2022-12-07T18:02:22;8.02;;;2.20;;
16099;SDS011;8154;50.830;12.082;2022-12-07T18:05:08;11.27;;;2.35;;
16099;SDS011;8154;50.830;12.082;2022-12-07T18:07:53;9.07;;;2.22;;
16099;SDS011;8154;50.830;12.082;2022-12-07T18:10:38;9.10;;;2.00;;
16099;SDS011;8154;50.830;12.082;2022-12-07T18:13:22;7.22;;;2.17;;
16099;SDS011;8154;50.830;12.082;2022-12-07T18:16:23;11.02;;;1.88;;
16099;SDS011;8154;50.830;12.082;2022-12-07T18:19:10;6.93;;;2.08;;
16099;SDS011;8154;50.830;12.082;2022-12-07T18:21:56;8.10;;;1.90;;
16099;SDS011;8154;50.830;12.082;2022-12-07T18:24:40;7.18;;;2.00;;
16099;SDS011;8154;50.830;12.082;2022-12-07T18:27:25;4.25;;;1.90;;
16099;SDS011;8154;50.830;12.082;2022-12-07T18:30:09;6.05;;;2.05;;
16099;SDS011;8154;50.830;12.082;2022-12-07T18:32:54;6.93;;;1.95;;
16099;SDS011;8154;50.830;12.082;2022-12-07T18:35:38;6.32;;;1.83;;
16099;SDS011;8154;50.830;12.082;2022-12-07T18:38:22;5.68;;;1.88;;
16099;SDS011;8154;50.830;12.082;2022-12-07T18:41:07;5.55;;;2.00;;
16099;SDS011;8154;50.830;12.082;2022-12-07T18:43:54;3.85;;;1.80;;
16099;SDS011;8154;50.830;12.082;2022-12-07T18:46:38;4.65;;;1.80;;
16099;SDS011;8154;50.830;12.082;2022-12-07T18:49:24;3.45;;;1.85;;
16099;SDS011;8154;50.830;12.082;2022-12-07T18:52:09;7.78;;;1.70;;
16099;SDS011;8154;50.830;12.082;2022-12-07T18:54:56;3.58;;;1.70;;
16099;SDS011;8154;50.830;12.082;2022-12-07T18:57:40;2.53;;;1.77;;
16099;SDS011;8154;50.830;12.082;2022-12-07T19:00:24;3.47;;;1.70;;
16099;SDS011;8154;50.830;12.082;2022-12-07T19:03:10;2.58;;;1.70;;
16099;SDS011;8154;50.830;12.082;2022-12-07T19:05:54;4.40;;;1.70;;
16099;SDS011;8154;50.830;12.082;2022-12-07T19:08:40;6.72;;;1.85;;
16099;SDS011;8154;50.830;12.082;2022-12-07T19:11:28;3.92;;;1.60;;
16099;SDS011;8154;50.830;12.082;2022-12-07T19:14:33;6.65;;;1.83;;